createdAt,value
2019-05-06T00:00:08.992Z,1013.88
2019-05-06T00:01:08.955Z,1013.90
2019-05-06T00:02:08.935Z,1013.93
2019-05-06T00:03:08.903Z,1013.92
2019-05-06T00:04:08.886Z,1013.91
2019-05-06T00:05:08.829Z,1013.91
2019-05-06T00:06:08.804Z,1013.94
2019-05-06T00:07:08.767Z,1013.92
2019-05-06T00:08:08.730Z,1013.96
2019-05-06T00:09:08.748Z,1013.95
2019-05-06T00:10:08.661Z,1014.00
2019-05-06T00:11:08.632Z,1013.98
2019-05-06T00:12:08.605Z,1013.97
2019-05-06T00:13:08.567Z,1013.97
2019-05-06T00:14:08.559Z,1013.97
2019-05-06T00:15:08.500Z,1013.98
2019-05-06T00:16:08.470Z,1014.00
2019-05-06T00:17:08.447Z,1013.98
2019-05-06T00:18:08.409Z,1013.98
2019-05-06T00:19:08.371Z,1014.01
2019-05-06T00:20:08.361Z,1013.96
2019-05-06T00:21:08.333Z,1013.98
2019-05-06T00:22:08.279Z,1013.97
2019-05-06T00:23:08.239Z,1013.93
2019-05-06T00:24:08.211Z,1013.91
2019-05-06T00:25:08.203Z,1013.94
2019-05-06T00:26:08.145Z,1013.92
2019-05-06T00:27:08.119Z,1013.86
2019-05-06T00:28:08.092Z,1013.91
2019-05-06T00:29:08.056Z,1013.90
2019-05-06T00:30:08.055Z,1013.89
2019-05-06T00:31:12.934Z,1013.90
2019-05-06T00:32:07.960Z,1013.88
2019-05-06T00:33:07.920Z,1013.91
2019-05-06T00:34:07.890Z,1013.92
2019-05-06T00:35:07.870Z,1013.90
2019-05-06T00:36:07.818Z,1013.87
2019-05-06T00:37:07.805Z,1013.88
2019-05-06T00:38:07.759Z,1013.88
2019-05-06T00:39:07.718Z,1013.86
2019-05-06T00:40:07.733Z,1013.90
2019-05-06T00:41:07.658Z,1013.89
2019-05-06T00:42:07.641Z,1013.88
2019-05-06T00:43:07.588Z,1013.93
2019-05-06T00:44:07.556Z,1013.94
2019-05-06T00:45:07.548Z,1013.88
2019-05-06T00:46:07.494Z,1013.92
2019-05-06T00:47:07.460Z,1013.87
2019-05-06T00:48:07.425Z,1013.89
2019-05-06T00:49:07.398Z,1013.86
2019-05-06T00:50:07.392Z,1013.90
2019-05-06T00:51:07.337Z,1013.91
2019-05-06T00:52:07.301Z,1013.88
2019-05-06T00:53:07.262Z,1013.94
2019-05-06T00:54:07.237Z,1013.92
2019-05-06T00:55:08.014Z,1013.97
2019-05-06T00:56:07.174Z,1013.97
2019-05-06T00:57:07.132Z,1013.95
2019-05-06T00:58:07.104Z,1014.00
2019-05-06T00:59:07.074Z,1013.95
2019-05-06T01:00:07.070Z,1014.00
2019-05-06T01:01:07.003Z,1013.97
2019-05-06T01:02:06.971Z,1014.00
2019-05-06T01:03:06.942Z,1014.00
2019-05-06T01:04:06.910Z,1013.98
2019-05-06T01:05:06.904Z,1014.00
2019-05-06T01:06:06.866Z,1014.00
2019-05-06T01:07:06.809Z,1014.01
2019-05-06T01:08:06.807Z,1014.02
2019-05-06T01:09:06.746Z,1014.01
2019-05-06T01:10:06.773Z,1014.00
2019-05-06T01:11:06.719Z,1014.01
2019-05-06T01:12:06.653Z,1014.01
2019-05-06T01:13:06.610Z,1013.97
2019-05-06T01:14:06.578Z,1013.98
2019-05-06T01:15:06.547Z,1014.01
2019-05-06T01:16:06.570Z,1014.00
2019-05-06T01:17:06.483Z,1013.99
2019-05-06T01:18:06.474Z,1014.00
2019-05-06T01:19:06.411Z,1013.98
2019-05-06T01:20:06.376Z,1014.00
2019-05-06T01:21:06.404Z,1014.00
2019-05-06T01:22:06.371Z,1014.01
2019-05-06T01:23:06.282Z,1014.01
2019-05-06T01:24:06.245Z,1014.02
2019-05-06T01:25:06.209Z,1014.01
2019-05-06T01:26:06.241Z,1014.02
2019-05-06T01:27:06.147Z,1014.01
2019-05-06T01:28:06.121Z,1014.01
2019-05-06T01:29:06.082Z,1014.04
2019-05-06T01:30:06.062Z,1014.07
2019-05-06T01:31:06.066Z,1014.05
2019-05-06T01:32:05.989Z,1014.07
2019-05-06T01:33:05.949Z,1014.06
2019-05-06T01:34:05.955Z,1014.04
2019-05-06T01:35:05.879Z,1014.06
2019-05-06T01:36:05.847Z,1014.06
2019-05-06T01:37:05.816Z,1014.09
2019-05-06T01:38:05.785Z,1014.09
2019-05-06T01:39:05.782Z,1014.10
2019-05-06T01:40:05.720Z,1014.12
2019-05-06T01:41:05.678Z,1014.13
2019-05-06T01:42:05.644Z,1014.11
2019-05-06T01:43:05.634Z,1014.11
2019-05-06T01:44:05.673Z,1014.08
2019-05-06T01:45:05.551Z,1014.13
2019-05-06T01:46:05.536Z,1014.13
2019-05-06T01:47:05.477Z,1014.14
2019-05-06T01:48:05.439Z,1014.14
2019-05-06T01:49:05.450Z,1014.16
2019-05-06T01:50:05.514Z,1014.14
2019-05-06T01:51:05.352Z,1014.19
2019-05-06T01:52:05.307Z,1014.17
2019-05-06T01:53:05.326Z,1014.19
2019-05-06T01:54:05.230Z,1014.24
2019-05-06T01:55:05.206Z,1014.19
2019-05-06T01:56:05.170Z,1014.22
2019-05-06T01:57:05.136Z,1014.18
2019-05-06T01:58:05.245Z,1014.23
2019-05-06T01:59:05.069Z,1014.18
2019-05-06T02:00:05.048Z,1014.19
2019-05-06T02:01:05.011Z,1014.21
2019-05-06T02:02:04.960Z,1014.23
2019-05-06T02:03:04.973Z,1014.22
2019-05-06T02:04:04.891Z,1014.20
2019-05-06T02:05:04.941Z,1014.19
2019-05-06T02:06:04.929Z,1014.22
2019-05-06T02:07:04.894Z,1014.19
2019-05-06T02:08:04.757Z,1014.21
2019-05-06T02:09:04.772Z,1014.25
2019-05-06T02:10:04.686Z,1014.24
2019-05-06T02:11:04.673Z,1014.23
2019-05-06T02:12:04.857Z,1014.26
2019-05-06T02:13:04.588Z,1014.28
2019-05-06T02:14:04.868Z,1014.29
2019-05-06T02:15:04.513Z,1014.28
2019-05-06T02:16:04.484Z,1014.30
2019-05-06T02:17:04.501Z,1014.30
2019-05-06T02:18:04.466Z,1014.28
2019-05-06T02:19:04.386Z,1014.31
2019-05-06T02:20:04.369Z,1014.32
2019-05-06T02:21:05.507Z,1014.31
2019-05-06T02:22:04.382Z,1014.30
2019-05-06T02:23:04.329Z,1014.31
2019-05-06T02:24:04.394Z,1014.32
2019-05-06T02:25:04.589Z,1014.32
2019-05-06T02:26:04.873Z,1014.32
2019-05-06T02:27:04.490Z,1014.33
2019-05-06T02:28:04.112Z,1014.37
2019-05-06T02:29:04.332Z,1014.32
2019-05-06T02:30:05.422Z,1014.31
2019-05-06T02:31:05.329Z,1014.33
2019-05-06T02:32:19.914Z,1014.30
2019-05-06T02:33:04.486Z,1014.28
2019-05-06T02:34:05.091Z,1014.29
2019-05-06T02:35:05.201Z,1014.27
2019-05-06T02:36:06.414Z,1014.25
2019-05-06T02:37:06.382Z,1014.25
2019-05-06T02:38:04.915Z,1014.23
2019-05-06T02:39:03.764Z,1014.23
2019-05-06T02:40:04.366Z,1014.23
2019-05-06T02:41:03.843Z,1014.23
2019-05-06T02:42:04.186Z,1014.23
2019-05-06T02:43:03.593Z,1014.23
2019-05-06T02:44:03.837Z,1014.26
2019-05-06T02:45:04.160Z,1014.23
2019-05-06T02:46:04.221Z,1014.28
2019-05-06T02:47:03.419Z,1014.29
2019-05-06T02:48:04.412Z,1014.29
2019-05-06T02:49:04.003Z,1014.31
2019-05-06T02:50:04.505Z,1014.31
2019-05-06T02:51:03.944Z,1014.32
2019-05-06T02:52:03.324Z,1014.34
2019-05-06T02:53:03.223Z,1014.32
2019-05-06T02:54:03.491Z,1014.32
2019-05-06T02:55:06.017Z,1014.28
2019-05-06T02:56:04.207Z,1014.30
2019-05-06T02:57:04.183Z,1014.32
2019-05-06T02:58:03.022Z,1014.31
2019-05-06T02:59:03.902Z,1014.30
2019-05-06T03:00:05.025Z,1014.28
2019-05-06T03:01:03.750Z,1014.31
2019-05-06T03:02:03.601Z,1014.35
2019-05-06T03:03:03.075Z,1014.31
2019-05-06T03:04:04.501Z,1014.33
2019-05-06T03:05:04.262Z,1014.30
2019-05-06T03:06:03.868Z,1014.30
2019-05-06T03:07:03.658Z,1014.28
2019-05-06T03:08:03.288Z,1014.31
2019-05-06T03:09:03.120Z,1014.31
2019-05-06T03:10:04.214Z,1014.32
2019-05-06T03:11:04.039Z,1014.31
2019-05-06T03:12:03.639Z,1014.31
2019-05-06T03:13:02.970Z,1014.33
2019-05-06T03:14:03.238Z,1014.33
2019-05-06T03:15:03.391Z,1014.31
2019-05-06T03:16:05.290Z,1014.30
2019-05-06T03:17:03.576Z,1014.33
2019-05-06T03:18:03.171Z,1014.31
2019-05-06T03:19:04.197Z,1014.32
2019-05-06T03:20:04.220Z,1014.32
2019-05-06T03:21:03.830Z,1014.30
2019-05-06T03:22:03.421Z,1014.32
2019-05-06T03:23:03.716Z,1014.32
2019-05-06T03:24:06.967Z,1014.35
2019-05-06T03:25:06.251Z,1014.31
2019-05-06T03:26:03.749Z,1014.37
2019-05-06T03:27:04.596Z,1014.39
2019-05-06T03:28:04.210Z,1014.36
2019-05-06T03:29:02.915Z,1014.33
2019-05-06T03:30:04.127Z,1014.39
2019-05-06T03:31:06.605Z,1014.36
2019-05-06T03:32:06.076Z,1014.36
2019-05-06T03:33:30.918Z,1014.40
2019-05-06T03:34:28.975Z,1014.42
2019-05-06T03:35:25.103Z,1014.41
2019-05-06T03:36:15.453Z,1014.41
2019-05-06T03:37:06.637Z,1014.40
2019-05-06T03:38:03.820Z,1014.39
2019-05-06T03:39:03.053Z,1014.42
2019-05-06T03:40:03.059Z,1014.41
2019-05-06T03:41:03.011Z,1014.40
2019-05-06T03:42:04.224Z,1014.38
2019-05-06T03:43:02.826Z,1014.39
2019-05-06T03:44:03.310Z,1014.38
2019-05-06T03:45:04.158Z,1014.42
2019-05-06T03:46:03.554Z,1014.39
2019-05-06T03:47:05.352Z,1014.43
2019-05-06T03:48:05.441Z,1014.41
2019-05-06T03:49:03.632Z,1014.44
2019-05-06T03:50:04.713Z,1014.39
2019-05-06T03:51:03.845Z,1014.43
2019-05-06T03:52:02.721Z,1014.44
2019-05-06T03:53:03.283Z,1014.44
2019-05-06T03:54:03.385Z,1014.46
2019-05-06T03:55:03.598Z,1014.49
2019-05-06T03:56:03.356Z,1014.46
2019-05-06T03:57:03.150Z,1014.45
2019-05-06T03:58:03.594Z,1014.44
2019-05-06T03:59:02.828Z,1014.43
2019-05-06T04:00:04.308Z,1014.44
2019-05-06T04:01:03.567Z,1014.48
2019-05-06T04:02:00.825Z,1014.41
2019-05-06T04:03:03.083Z,1014.47
2019-05-06T04:04:03.558Z,1014.46
2019-05-06T04:05:03.611Z,1014.47
2019-05-06T04:06:03.793Z,1014.44
2019-05-06T04:07:03.285Z,1014.51
2019-05-06T04:08:03.630Z,1014.52
2019-05-06T04:09:03.356Z,1014.52
2019-05-06T04:10:03.483Z,1014.48
2019-05-06T04:11:03.073Z,1014.53
2019-05-06T04:12:03.284Z,1014.56
2019-05-06T04:13:00.377Z,1014.52
2019-05-06T04:14:02.757Z,1014.54
2019-05-06T04:15:03.539Z,1014.55
2019-05-06T04:16:03.556Z,1014.56
2019-05-06T04:17:00.241Z,1014.59
2019-05-06T04:18:00.210Z,1014.58
2019-05-06T04:19:00.223Z,1014.61
2019-05-06T04:20:03.757Z,1014.60
2019-05-06T04:21:03.507Z,1014.62
2019-05-06T04:22:03.490Z,1014.62
2019-05-06T04:23:00.029Z,1014.60
2019-05-06T04:24:00.184Z,1014.65
2019-05-06T04:25:03.597Z,1014.63
2019-05-06T04:25:59.940Z,1014.62
2019-05-06T04:27:02.868Z,1014.59
2019-05-06T04:27:59.870Z,1014.60
2019-05-06T04:29:03.670Z,1014.58
2019-05-06T04:29:59.793Z,1014.59
2019-05-06T04:31:02.536Z,1014.59
2019-05-06T04:31:59.718Z,1014.56
2019-05-06T04:32:59.689Z,1014.60
2019-05-06T04:34:09.949Z,1014.61
2019-05-06T04:34:59.634Z,1014.62
2019-05-06T04:35:59.636Z,1014.61
2019-05-06T04:36:59.540Z,1014.61
2019-05-06T04:37:59.504Z,1014.62
2019-05-06T04:38:59.468Z,1014.60
2019-05-06T04:39:59.565Z,1014.63
2019-05-06T04:40:59.453Z,1014.63
2019-05-06T04:41:59.390Z,1014.66
2019-05-06T04:42:59.343Z,1014.64
2019-05-06T04:43:59.337Z,1014.66
2019-05-06T04:44:59.264Z,1014.64
2019-05-06T04:45:59.226Z,1014.67
2019-05-06T04:46:59.206Z,1014.64
2019-05-06T04:47:59.201Z,1014.62
2019-05-06T04:48:59.130Z,1014.67
2019-05-06T04:49:59.084Z,1014.66
2019-05-06T04:50:59.050Z,1014.63
2019-05-06T04:51:59.018Z,1014.65
2019-05-06T04:52:59.036Z,1014.64
2019-05-06T04:53:58.954Z,1014.66
2019-05-06T04:54:58.959Z,1014.67
2019-05-06T04:55:58.897Z,1014.70
2019-05-06T04:56:58.911Z,1014.68
2019-05-06T04:57:58.815Z,1014.65
2019-05-06T04:58:58.778Z,1014.66
2019-05-06T04:59:58.796Z,1014.70
2019-05-06T05:00:58.707Z,1014.69
2019-05-06T05:01:58.729Z,1014.74
2019-05-06T05:02:58.648Z,1014.70
2019-05-06T05:03:58.615Z,1014.67
2019-05-06T05:04:58.678Z,1014.67
2019-05-06T05:06:01.764Z,1014.72
2019-05-06T05:06:58.530Z,1014.74
2019-05-06T05:07:58.475Z,1014.69
2019-05-06T05:08:59.056Z,1014.76
2019-05-06T05:09:58.408Z,1014.75
2019-05-06T05:10:58.375Z,1014.73
2019-05-06T05:11:58.339Z,1014.78
2019-05-06T05:12:58.362Z,1014.80
2019-05-06T05:13:58.268Z,1014.83
2019-05-06T05:14:59.183Z,1014.77
2019-05-06T05:15:58.194Z,1014.80
2019-05-06T05:16:58.194Z,1014.83
2019-05-06T05:17:58.161Z,1014.82
2019-05-06T05:18:58.095Z,1014.81
2019-05-06T05:19:58.071Z,1014.80
2019-05-06T05:20:58.035Z,1014.83
2019-05-06T05:21:58.031Z,1014.80
2019-05-06T05:22:57.966Z,1014.84
2019-05-06T05:23:57.929Z,1014.83
2019-05-06T05:24:57.892Z,1014.84
2019-05-06T05:25:57.866Z,1014.78
2019-05-06T05:26:57.851Z,1014.79
2019-05-06T05:27:57.793Z,1014.79
2019-05-06T05:28:57.761Z,1014.80
2019-05-06T05:29:57.729Z,1014.74
2019-05-06T05:30:57.693Z,1014.75
2019-05-06T05:31:57.687Z,1014.74
2019-05-06T05:32:57.624Z,1014.74
2019-05-06T05:33:57.599Z,1014.75
2019-05-06T05:34:57.567Z,1014.77
2019-05-06T05:35:57.530Z,1014.76
2019-05-06T05:36:57.514Z,1014.80
2019-05-06T05:37:57.461Z,1014.78
2019-05-06T05:38:57.432Z,1014.81
2019-05-06T05:39:57.395Z,1014.82
2019-05-06T05:40:57.363Z,1014.83
2019-05-06T05:41:57.327Z,1014.84
2019-05-06T05:42:57.317Z,1014.87
2019-05-06T05:43:57.255Z,1014.86
2019-05-06T05:44:57.228Z,1014.88
2019-05-06T05:45:57.191Z,1014.88
2019-05-06T05:46:57.153Z,1014.87
2019-05-06T05:47:57.144Z,1014.89
2019-05-06T05:48:57.090Z,1014.87
2019-05-06T05:49:57.056Z,1014.86
2019-05-06T05:50:57.024Z,1014.88
2019-05-06T05:51:56.985Z,1014.85
2019-05-06T05:52:56.976Z,1014.87
2019-05-06T05:53:56.933Z,1014.88
2019-05-06T05:54:56.896Z,1014.87
2019-05-06T05:55:56.858Z,1014.90
2019-05-06T05:56:56.825Z,1014.91
2019-05-06T05:57:56.822Z,1014.92
2019-05-06T05:58:56.790Z,1014.88
2019-05-06T05:59:56.731Z,1014.87
2019-05-06T06:00:56.696Z,1014.89
2019-05-06T06:01:56.665Z,1014.85
2019-05-06T06:02:56.647Z,1014.88
2019-05-06T06:03:56.597Z,1014.86
2019-05-06T06:04:57.609Z,1014.85
2019-05-06T06:05:56.527Z,1014.83
2019-05-06T06:06:56.502Z,1014.87
2019-05-06T06:07:56.494Z,1014.85
2019-05-06T06:08:56.425Z,1014.86
2019-05-06T06:09:56.395Z,1014.85
2019-05-06T06:10:56.363Z,1014.86
2019-05-06T06:11:56.386Z,1014.87
2019-05-06T06:12:56.350Z,1014.91
2019-05-06T06:13:56.274Z,1014.87
2019-05-06T06:14:56.517Z,1014.88
2019-05-06T06:15:56.195Z,1014.83
2019-05-06T06:16:56.168Z,1014.83
2019-05-06T06:17:56.158Z,1014.85
2019-05-06T06:18:56.099Z,1014.84
2019-05-06T06:19:56.077Z,1014.81
2019-05-06T06:20:56.048Z,1014.83
2019-05-06T06:21:56.028Z,1014.84
2019-05-06T06:22:55.990Z,1014.83
2019-05-06T06:23:55.931Z,1014.86
2019-05-06T06:24:55.906Z,1014.91
2019-05-06T06:25:55.869Z,1014.89
2019-05-06T06:26:55.834Z,1014.92
2019-05-06T06:27:55.823Z,1014.91
2019-05-06T06:28:55.774Z,1014.92
2019-05-06T06:29:55.736Z,1014.93
2019-05-06T06:30:55.706Z,1014.91
2019-05-06T06:31:55.698Z,1014.94
2019-05-06T06:32:55.666Z,1014.94
2019-05-06T06:33:55.611Z,1014.91
2019-05-06T06:35:07.400Z,1014.86
2019-05-06T06:35:55.543Z,1014.93
2019-05-06T06:36:55.510Z,1014.89
2019-05-06T06:37:55.472Z,1014.90
2019-05-06T06:38:55.471Z,1014.88
2019-05-06T06:39:55.424Z,1014.83
2019-05-06T06:40:55.768Z,1014.87
2019-05-06T06:41:55.349Z,1014.87
2019-05-06T06:42:55.315Z,1014.84
2019-05-06T06:43:55.308Z,1014.84
2019-05-06T06:44:55.262Z,1014.84
2019-05-06T06:45:55.219Z,1014.86
2019-05-06T06:46:55.186Z,1014.84
2019-05-06T06:47:55.154Z,1014.81
2019-05-06T06:48:55.148Z,1014.86
2019-05-06T06:49:55.091Z,1014.87
2019-05-06T06:50:55.060Z,1014.82
2019-05-06T06:51:55.035Z,1014.84
2019-05-06T06:52:54.993Z,1014.83
2019-05-06T06:53:54.980Z,1014.79
2019-05-06T06:54:54.928Z,1014.82
2019-05-06T06:55:54.890Z,1014.78
2019-05-06T06:57:05.074Z,1014.75
2019-05-06T06:57:54.829Z,1014.74
2019-05-06T06:58:54.817Z,1014.73
2019-05-06T06:59:54.780Z,1014.71
2019-05-06T07:00:54.760Z,1014.73
2019-05-06T07:01:54.707Z,1014.69
2019-05-06T07:02:54.673Z,1014.70
2019-05-06T07:03:54.658Z,1014.70
2019-05-06T07:04:54.609Z,1014.73
2019-05-06T07:05:54.571Z,1014.72
2019-05-06T07:06:54.548Z,1014.77
2019-05-06T07:07:54.507Z,1014.81
2019-05-06T07:08:54.535Z,1014.81
2019-05-06T07:09:54.455Z,1014.75
2019-05-06T07:10:54.415Z,1014.77
2019-05-06T07:11:54.382Z,1014.75
2019-05-06T07:12:54.353Z,1014.76
2019-05-06T07:13:54.364Z,1014.76
2019-05-06T07:14:54.292Z,1014.75
2019-05-06T07:15:54.253Z,1014.74
2019-05-06T07:16:54.230Z,1014.79
2019-05-06T07:17:54.197Z,1014.77
2019-05-06T07:18:54.190Z,1014.67
2019-05-06T07:19:54.130Z,1014.77
2019-05-06T07:20:54.102Z,1014.78
2019-05-06T07:21:54.069Z,1014.79
2019-05-06T07:22:54.033Z,1014.68
2019-05-06T07:23:54.011Z,1014.76
2019-05-06T07:24:54.008Z,1014.67
2019-05-06T07:25:54.026Z,1014.69
2019-05-06T07:26:53.921Z,1014.64
2019-05-06T07:27:53.883Z,1014.68
2019-05-06T07:28:53.858Z,1014.66
2019-05-06T07:29:53.850Z,1014.66
2019-05-06T07:30:53.787Z,1014.66
2019-05-06T07:31:53.756Z,1014.70
2019-05-06T07:32:53.723Z,1014.71
2019-05-06T07:33:53.692Z,1014.63
2019-05-06T07:34:53.683Z,1014.65
2019-05-06T07:35:53.643Z,1014.67
2019-05-06T07:36:53.599Z,1014.72
2019-05-06T07:37:53.568Z,1014.70
2019-05-06T07:38:53.582Z,1014.66
2019-05-06T07:39:53.533Z,1014.64
2019-05-06T07:40:53.476Z,1014.61
2019-05-06T07:41:53.660Z,1014.62
2019-05-06T07:42:53.441Z,1014.64
2019-05-06T07:43:53.403Z,1014.68
2019-05-06T07:44:53.377Z,1014.64
2019-05-06T07:45:53.323Z,1014.71
2019-05-06T07:46:53.298Z,1014.78
2019-05-06T07:47:53.286Z,1014.71
2019-05-06T07:48:53.262Z,1014.73
2019-05-06T07:49:53.330Z,1014.72
2019-05-06T07:50:53.166Z,1014.78
2019-05-06T07:51:53.329Z,1014.79
2019-05-06T07:52:53.119Z,1014.80
2019-05-06T07:53:53.087Z,1014.86
2019-05-06T07:54:53.465Z,1014.84
2019-05-06T07:55:53.027Z,1014.81
2019-05-06T07:56:52.995Z,1014.82
2019-05-06T07:57:52.963Z,1014.76
2019-05-06T07:58:53.039Z,1014.71
2019-05-06T07:59:52.952Z,1014.70
2019-05-06T08:00:52.871Z,1014.67
2019-05-06T08:01:54.067Z,1014.75
2019-05-06T08:02:52.813Z,1014.74
2019-05-06T08:03:53.373Z,1014.80
2019-05-06T08:04:53.321Z,1014.71
2019-05-06T08:05:58.407Z,1014.73
2019-05-06T08:06:52.699Z,1014.69
2019-05-06T08:07:55.169Z,1014.73
2019-05-06T08:08:53.778Z,1014.73
2019-05-06T08:09:53.044Z,1014.71
2019-05-06T08:10:52.757Z,1014.75
2019-05-06T08:11:53.085Z,1014.74
2019-05-06T08:12:52.728Z,1014.73
2019-05-06T08:13:52.841Z,1014.76
2019-05-06T08:14:52.615Z,1014.76
2019-05-06T08:15:53.367Z,1014.79
2019-05-06T08:16:53.155Z,1014.73
2019-05-06T08:17:52.522Z,1014.73
2019-05-06T08:18:52.589Z,1014.81
2019-05-06T08:19:52.884Z,1014.73
2019-05-06T08:20:52.313Z,1014.78
2019-05-06T08:21:52.256Z,1014.74
2019-05-06T08:22:52.948Z,1014.78
2019-05-06T08:23:52.377Z,1014.82
2019-05-06T08:24:53.191Z,1014.78
2019-05-06T08:25:54.379Z,1014.81
2019-05-06T08:26:52.230Z,1014.81
2019-05-06T08:27:53.207Z,1014.80
2019-05-06T08:28:52.708Z,1014.82
2019-05-06T08:29:52.637Z,1014.81
2019-05-06T08:30:53.148Z,1014.75
2019-05-06T08:31:52.460Z,1014.74
2019-05-06T08:32:52.863Z,1014.81
2019-05-06T08:33:52.539Z,1014.80
2019-05-06T08:34:52.375Z,1014.76
2019-05-06T08:35:54.559Z,1014.79
2019-05-06T08:36:53.370Z,1014.77
2019-05-06T08:37:53.105Z,1014.75
2019-05-06T08:38:53.243Z,1014.80
2019-05-06T08:39:52.699Z,1014.80
2019-05-06T08:40:52.570Z,1014.76
2019-05-06T08:41:52.866Z,1014.82
2019-05-06T08:42:53.225Z,1014.80
2019-05-06T08:43:52.770Z,1014.77
2019-05-06T08:44:53.057Z,1014.77
2019-05-06T08:45:52.857Z,1014.85
2019-05-06T08:46:53.261Z,1014.77
2019-05-06T08:47:52.401Z,1014.76
2019-05-06T08:48:52.548Z,1014.78
2019-05-06T08:49:52.730Z,1014.80
2019-05-06T08:50:52.860Z,1014.76
2019-05-06T08:51:53.119Z,1014.72
2019-05-06T08:52:52.304Z,1014.68
2019-05-06T08:53:53.363Z,1014.73
2019-05-06T08:54:52.671Z,1014.68
2019-05-06T08:55:52.961Z,1014.71
2019-05-06T08:56:52.329Z,1014.63
2019-05-06T08:57:53.193Z,1014.78
2019-05-06T08:58:52.767Z,1014.68
2019-05-06T08:59:51.142Z,1014.71
2019-05-06T09:00:53.212Z,1014.62
2019-05-06T09:01:53.166Z,1014.62
2019-05-06T09:02:53.023Z,1014.56
2019-05-06T09:04:09.450Z,1014.50
2019-05-06T09:04:57.624Z,1014.55
2019-05-06T09:05:56.519Z,1014.67
